sensor_id;sensor_type;location;lat;lon;timestamp;pressure;altitude;pressure_sealevel;temperature;humidity
26657;BME280;14279;50.010;8.260;2023-01-29T00:01:58;101815.94;;;2.10;55.95
26657;BME280;14279;50.010;8.260;2023-01-29T00:04:23;101815.25;;;2.24;56.02
26657;BME280;14279;50.010;8.260;2023-01-29T00:06:48;101811.00;;;2.29;56.63
26657;BME280;14279;50.010;8.260;2023-01-29T00:09:14;101822.00;;;2.14;56.82
26657;BME280;14279;50.010;8.260;2023-01-29T00:11:42;101823.59;;;2.07;56.43
26657;BME280;14279;50.010;8.260;2023-01-29T00:14:07;101815.97;;;2.14;56.72
26657;BME280;14279;50.010;8.260;2023-01-29T00:16:32;101819.31;;;2.03;56.09
26657;BME280;14279;50.010;8.260;2023-01-29T00:18:59;101825.44;;;2.16;56.65
26657;BME280;14279;50.010;8.260;2023-01-29T00:21:25;101822.00;;;2.16;56.95
26657;BME280;14279;50.010;8.260;2023-01-29T00:23:50;101827.31;;;2.28;56.38
26657;BME280;14279;50.010;8.260;2023-01-29T00:26:16;101823.00;;;2.27;56.77
26657;BME280;14279;50.010;8.260;2023-01-29T00:28:42;101829.94;;;2.33;56.33
26657;BME280;14279;50.010;8.260;2023-01-29T00:31:09;101841.75;;;2.20;56.05
26657;BME280;14279;50.010;8.260;2023-01-29T00:33:35;101840.00;;;2.17;55.58
26657;BME280;14279;50.010;8.260;2023-01-29T00:36:05;101841.75;;;2.20;55.39
26657;BME280;14279;50.010;8.260;2023-01-29T00:38:32;101844.31;;;2.20;56.03
26657;BME280;14279;50.010;8.260;2023-01-29T00:41:04;101839.09;;;2.12;56.69
26657;BME280;14279;50.010;8.260;2023-01-29T00:43:48;101835.75;;;2.19;56.63
26657;BME280;14279;50.010;8.260;2023-01-29T00:46:32;101827.28;;;2.27;56.97
26657;BME280;14279;50.010;8.260;2023-01-29T00:49:00;101823.94;;;2.35;56.63
26657;BME280;14279;50.010;8.260;2023-01-29T00:51:26;101824.66;;;2.22;56.25
26657;BME280;14279;50.010;8.260;2023-01-29T00:53:54;101828.88;;;2.15;56.50
26657;BME280;14279;50.010;8.260;2023-01-29T00:56:25;101827.94;;;2.10;57.07
26657;BME280;14279;50.010;8.260;2023-01-29T00:58:50;101825.31;;;2.07;56.69
26657;BME280;14279;50.010;8.260;2023-01-29T01:01:16;101825.28;;;2.02;56.77
26657;BME280;14279;50.010;8.260;2023-01-29T01:03:41;101821.91;;;2.09;57.47
26657;BME280;14279;50.010;8.260;2023-01-29T01:06:09;101825.41;;;2.13;56.72
26657;BME280;14279;50.010;8.260;2023-01-29T01:08:34;101821.03;;;2.07;57.07
26657;BME280;14279;50.010;8.260;2023-01-29T01:11:18;101815.19;;;2.18;56.94
26657;BME280;14279;50.010;8.260;2023-01-29T01:13:44;101813.41;;;2.12;56.87
26657;BME280;14279;50.010;8.260;2023-01-29T01:16:16;101813.59;;;2.28;56.37
26657;BME280;14279;50.010;8.260;2023-01-29T01:18:43;101812.59;;;2.16;56.77
26657;BME280;14279;50.010;8.260;2023-01-29T01:21:08;101806.50;;;2.09;57.34
26657;BME280;14279;50.010;8.260;2023-01-29T01:23:33;101798.75;;;2.03;56.65
26657;BME280;14279;50.010;8.260;2023-01-29T01:25:59;101803.25;;;2.23;56.77
26657;BME280;14279;50.010;8.260;2023-01-29T01:28:26;101803.31;;;2.29;56.65
26657;BME280;14279;50.010;8.260;2023-01-29T01:30:51;101797.31;;;2.27;56.58
26657;BME280;14279;50.010;8.260;2023-01-29T01:33:19;101799.78;;;2.18;56.14
26657;BME280;14279;50.010;8.260;2023-01-29T01:35:44;101781.50;;;1.94;56.94
26657;BME280;14279;50.010;8.260;2023-01-29T01:38:10;101787.69;;;2.10;57.24
26657;BME280;14279;50.010;8.260;2023-01-29T01:40:35;101782.66;;;2.21;57.07
26657;BME280;14279;50.010;8.260;2023-01-29T01:43:00;101783.44;;;2.13;57.19
26657;BME280;14279;50.010;8.260;2023-01-29T01:48:06;101769.50;;;1.92;57.45
26657;BME280;14279;50.010;8.260;2023-01-29T01:50:43;101767.94;;;2.05;57.43
26657;BME280;14279;50.010;8.260;2023-01-29T01:53:13;101754.88;;;1.86;57.88
26657;BME280;14279;50.010;8.260;2023-01-29T01:55:46;101757.53;;;1.94;57.12
26657;BME280;14279;50.010;8.260;2023-01-29T01:58:19;101760.38;;;2.19;57.01
26657;BME280;14279;50.010;8.260;2023-01-29T02:00:47;101750.91;;;2.15;56.81
26657;BME280;14279;50.010;8.260;2023-01-29T02:03:12;101753.38;;;2.05;56.82
26657;BME280;14279;50.010;8.260;2023-01-29T02:05:57;101743.25;;;2.16;56.86
26657;BME280;14279;50.010;8.260;2023-01-29T02:08:57;101752.75;;;2.25;56.63
26657;BME280;14279;50.010;8.260;2023-01-29T02:11:42;101747.53;;;2.19;56.39
26657;BME280;14279;50.010;8.260;2023-01-29T02:14:11;101757.00;;;2.23;56.21
26657;BME280;14279;50.010;8.260;2023-01-29T02:16:37;101744.06;;;2.14;56.36
26657;BME280;14279;50.010;8.260;2023-01-29T02:19:06;101752.63;;;2.17;56.76
26657;BME280;14279;50.010;8.260;2023-01-29T02:24:11;101750.94;;;2.19;56.85
26657;BME280;14279;50.010;8.260;2023-01-29T02:27:08;101755.28;;;2.23;56.41
26657;BME280;14279;50.010;8.260;2023-01-29T02:32:55;101762.75;;;2.02;56.44
26657;BME280;14279;50.010;8.260;2023-01-29T02:35:44;101768.84;;;2.12;56.50
26657;BME280;14279;50.010;8.260;2023-01-29T02:38:29;101768.13;;;2.23;56.52
26657;BME280;14279;50.010;8.260;2023-01-29T02:43:29;101780.94;;;2.19;56.12
26657;BME280;14279;50.010;8.260;2023-01-29T02:54:04;101804.16;;;2.27;55.37
26657;BME280;14279;50.010;8.260;2023-01-29T02:56:42;101795.47;;;2.18;55.96
26657;BME280;14279;50.010;8.260;2023-01-29T02:59:34;101799.78;;;2.19;56.36
26657;BME280;14279;50.010;8.260;2023-01-29T03:02:07;101799.06;;;2.31;56.89
26657;BME280;14279;50.010;8.260;2023-01-29T03:04:45;101788.88;;;2.42;56.61
26657;BME280;14279;50.010;8.260;2023-01-29T03:07:16;101785.28;;;2.24;56.85
26657;BME280;14279;50.010;8.260;2023-01-29T03:10:04;101773.16;;;2.11;56.57
26657;BME280;14279;50.010;8.260;2023-01-29T03:12:34;101772.34;;;2.17;56.90
26657;BME280;14279;50.010;8.260;2023-01-29T03:15:07;101769.53;;;1.95;57.56
26657;BME280;14279;50.010;8.260;2023-01-29T03:17:55;101765.34;;;2.03;57.57
26657;BME280;14279;50.010;8.260;2023-01-29T03:20:27;101775.75;;;2.14;56.42
26657;BME280;14279;50.010;8.260;2023-01-29T03:23:01;101774.78;;;2.06;57.23
26657;BME280;14279;50.010;8.260;2023-01-29T03:25:27;101782.63;;;2.18;57.38
26657;BME280;14279;50.010;8.260;2023-01-29T03:28:15;101783.63;;;2.31;57.49
26657;BME280;14279;50.010;8.260;2023-01-29T03:31:04;101795.44;;;2.14;57.00
26657;BME280;14279;50.010;8.260;2023-01-29T03:33:51;101792.78;;;2.04;56.82
26657;BME280;14279;50.010;8.260;2023-01-29T03:36:31;101787.69;;;2.09;57.12
26657;BME280;14279;50.010;8.260;2023-01-29T03:39:04;101792.06;;;2.16;56.78
26657;BME280;14279;50.010;8.260;2023-01-29T03:41:34;101791.34;;;2.31;56.37
26657;BME280;14279;50.010;8.260;2023-01-29T03:44:12;101786.03;;;2.14;56.89
26657;BME280;14279;50.010;8.260;2023-01-29T03:46:57;101782.63;;;2.18;57.51
26657;BME280;14279;50.010;8.260;2023-01-29T03:55:13;101773.31;;;2.25;57.88
26657;BME280;14279;50.010;8.260;2023-01-29T04:02:55;101800.69;;;2.24;57.40
26657;BME280;14279;50.010;8.260;2023-01-29T04:05:29;101796.97;;;1.99;57.56
26657;BME280;14279;50.010;8.260;2023-01-29T04:08:01;101796.03;;;1.92;58.18
26657;BME280;14279;50.010;8.260;2023-01-29T04:10:30;101800.94;;;1.75;58.26
26657;BME280;14279;50.010;8.260;2023-01-29T04:13:03;101786.25;;;1.65;57.93
26657;BME280;14279;50.010;8.260;2023-01-29T04:15:33;101785.06;;;1.41;59.36
26657;BME280;14279;50.010;8.260;2023-01-29T04:18:00;101763.84;;;1.52;58.86
26657;BME280;14279;50.010;8.260;2023-01-29T04:20:26;101764.91;;;1.69;58.00
26657;BME280;14279;50.010;8.260;2023-01-29T04:22:51;101761.66;;;1.83;58.51
26657;BME280;14279;50.010;8.260;2023-01-29T04:25:20;101766.88;;;1.89;57.99
26657;BME280;14279;50.010;8.260;2023-01-29T04:30:27;101754.19;;;2.01;57.35
26657;BME280;14279;50.010;8.260;2023-01-29T04:38:58;101767.44;;;1.66;58.74
26657;BME280;14279;50.010;8.260;2023-01-29T04:41:41;101776.63;;;1.50;58.13
26657;BME280;14279;50.010;8.260;2023-01-29T04:47:09;101774.00;;;1.47;58.78
26657;BME280;14279;50.010;8.260;2023-01-29T04:49:46;101776.25;;;1.25;58.86
26657;BME280;14279;50.010;8.260;2023-01-29T04:52:20;101775.09;;;1.04;59.65
26657;BME280;14279;50.010;8.260;2023-01-29T05:00:37;101770.22;;;1.20;59.40
26657;BME280;14279;50.010;8.260;2023-01-29T05:03:02;101773.59;;;1.16;59.20
26657;BME280;14279;50.010;8.260;2023-01-29T05:05:29;101768.63;;;1.28;58.94
26657;BME280;14279;50.010;8.260;2023-01-29T05:07:56;101777.81;;;1.15;59.59
26657;BME280;14279;50.010;8.260;2023-01-29T05:10:22;101776.75;;;1.01;59.85
26657;BME280;14279;50.010;8.260;2023-01-29T05:13:00;101777.41;;;0.89;61.07
26657;BME280;14279;50.010;8.260;2023-01-29T05:15:38;101781.84;;;0.99;60.81
26657;BME280;14279;50.010;8.260;2023-01-29T05:18:05;101775.69;;;1.43;59.90
26657;BME280;14279;50.010;8.260;2023-01-29T05:20:35;101774.56;;;1.26;60.04
26657;BME280;14279;50.010;8.260;2023-01-29T05:23:01;101767.69;;;1.23;60.25
26657;BME280;14279;50.010;8.260;2023-01-29T05:25:29;101769.16;;;1.07;60.44
26657;BME280;14279;50.010;8.260;2023-01-29T05:27:55;101759.97;;;1.23;60.11
26657;BME280;14279;50.010;8.260;2023-01-29T05:30:38;101755.06;;;1.37;59.52
26657;BME280;14279;50.010;8.260;2023-01-29T05:33:09;101749.88;;;1.34;59.02
26657;BME280;14279;50.010;8.260;2023-01-29T05:35:35;101744.16;;;1.50;59.43
26657;BME280;14279;50.010;8.260;2023-01-29T05:38:01;101751.88;;;1.54;59.27
26657;BME280;14279;50.010;8.260;2023-01-29T05:40:26;101750.84;;;1.41;59.08
26657;BME280;14279;50.010;8.260;2023-01-29T05:42:51;101761.22;;;1.48;59.67
26657;BME280;14279;50.010;8.260;2023-01-29T05:45:17;101758.75;;;1.58;58.97
26657;BME280;14279;50.010;8.260;2023-01-29T05:47:43;101762.25;;;1.63;58.81
26657;BME280;14279;50.010;8.260;2023-01-29T05:50:09;101765.81;;;1.73;59.38
26657;BME280;14279;50.010;8.260;2023-01-29T05:52:34;101766.56;;;1.62;58.95
26657;BME280;14279;50.010;8.260;2023-01-29T05:55:00;101775.09;;;1.61;59.23
26657;BME280;14279;50.010;8.260;2023-01-29T05:57:25;101777.56;;;1.55;59.80
26657;BME280;14279;50.010;8.260;2023-01-29T05:59:50;101771.69;;;1.62;59.20
26657;BME280;14279;50.010;8.260;2023-01-29T06:02:15;101772.13;;;1.33;59.58
26657;BME280;14279;50.010;8.260;2023-01-29T06:04:40;101782.31;;;1.29;59.85
26657;BME280;14279;50.010;8.260;2023-01-29T06:07:06;101790.13;;;1.37;59.15
26657;BME280;14279;50.010;8.260;2023-01-29T06:09:31;101777.66;;;1.04;60.04
26657;BME280;14279;50.010;8.260;2023-01-29T06:11:56;101772.41;;;0.97;61.04
26657;BME280;14279;50.010;8.260;2023-01-29T06:14:22;101767.63;;;1.18;60.31
26657;BME280;14279;50.010;8.260;2023-01-29T06:16:47;101768.66;;;1.30;59.72
26657;BME280;14279;50.010;8.260;2023-01-29T06:19:12;101773.75;;;1.27;60.01
26657;BME280;14279;50.010;8.260;2023-01-29T06:21:37;101778.03;;;1.28;59.82
26657;BME280;14279;50.010;8.260;2023-01-29T06:24:03;101772.41;;;0.98;60.41
26657;BME280;14279;50.010;8.260;2023-01-29T06:26:28;101762.16;;;0.97;60.75
26657;BME280;14279;50.010;8.260;2023-01-29T06:28:53;101755.47;;;1.07;61.26
26657;BME280;14279;50.010;8.260;2023-01-29T06:31:19;101755.63;;;1.17;60.77
26657;BME280;14279;50.010;8.260;2023-01-29T06:33:44;101743.88;;;1.32;60.05
26657;BME280;14279;50.010;8.260;2023-01-29T06:36:09;101749.09;;;1.37;60.18
26657;BME280;14279;50.010;8.260;2023-01-29T06:38:34;101749.81;;;1.28;60.38
26657;BME280;14279;50.010;8.260;2023-01-29T06:41:07;101751.59;;;1.32;59.66
26657;BME280;14279;50.010;8.260;2023-01-29T06:43:32;101752.94;;;1.10;59.77
26657;BME280;14279;50.010;8.260;2023-01-29T06:45:57;101759.03;;;1.16;59.89
26657;BME280;14279;50.010;8.260;2023-01-29T06:48:23;101754.00;;;1.23;59.83
26657;BME280;14279;50.010;8.260;2023-01-29T06:50:49;101752.28;;;1.22;60.15
26657;BME280;14279;50.010;8.260;2023-01-29T06:53:16;101763.22;;;1.11;60.67
26657;BME280;14279;50.010;8.260;2023-01-29T06:55:42;101747.63;;;0.97;60.69
26657;BME280;14279;50.010;8.260;2023-01-29T06:58:10;101755.78;;;0.73;60.98
26657;BME280;14279;50.010;8.260;2023-01-29T07:00:36;101755.66;;;0.65;61.58
26657;BME280;14279;50.010;8.260;2023-01-29T07:03:02;101760.00;;;0.69;60.91
26657;BME280;14279;50.010;8.260;2023-01-29T07:05:28;101761.84;;;0.78;60.36
26657;BME280;14279;50.010;8.260;2023-01-29T07:07:53;101763.53;;;0.78;60.41
26657;BME280;14279;50.010;8.260;2023-01-29T07:10:18;101768.13;;;0.96;59.92
26657;BME280;14279;50.010;8.260;2023-01-29T07:12:44;101777.50;;;0.94;60.39
26657;BME280;14279;50.010;8.260;2023-01-29T07:15:09;101778.50;;;1.02;60.59
26657;BME280;14279;50.010;8.260;2023-01-29T07:17:36;101782.06;;;1.12;59.53
26657;BME280;14279;50.010;8.260;2023-01-29T07:20:02;101786.53;;;1.25;59.43
26657;BME280;14279;50.010;8.260;2023-01-29T07:22:27;101793.38;;;1.26;59.51
26657;BME280;14279;50.010;8.260;2023-01-29T07:24:52;101800.41;;;1.38;58.46
26657;BME280;14279;50.010;8.260;2023-01-29T07:27:18;101800.06;;;1.16;59.31
26657;BME280;14279;50.010;8.260;2023-01-29T07:29:43;101804.44;;;1.20;58.91
26657;BME280;14279;50.010;8.260;2023-01-29T07:32:08;101801.56;;;1.02;59.42
26657;BME280;14279;50.010;8.260;2023-01-29T07:34:33;101802.69;;;1.18;59.86
26657;BME280;14279;50.010;8.260;2023-01-29T07:36:59;101808.56;;;1.12;59.61
26657;BME280;14279;50.010;8.260;2023-01-29T07:39:24;101798.22;;;1.06;58.82
26657;BME280;14279;50.010;8.260;2023-01-29T07:41:49;101803.59;;;1.22;58.75
26657;BME280;14279;50.010;8.260;2023-01-29T07:44:14;101797.47;;;1.13;58.84
26657;BME280;14279;50.010;8.260;2023-01-29T07:46:40;101790.09;;;1.35;58.82
26657;BME280;14279;50.010;8.260;2023-01-29T07:49:05;101793.34;;;1.23;59.31
26657;BME280;14279;50.010;8.260;2023-01-29T07:51:30;101783.84;;;1.16;59.19
26657;BME280;14279;50.010;8.260;2023-01-29T07:53:55;101776.53;;;0.88;59.90
26657;BME280;14279;50.010;8.260;2023-01-29T07:56:21;101772.72;;;0.63;60.37
26657;BME280;14279;50.010;8.260;2023-01-29T07:58:46;101771.81;;;0.61;60.41
26657;BME280;14279;50.010;8.260;2023-01-29T08:01:11;101770.75;;;0.99;59.31
26657;BME280;14279;50.010;8.260;2023-01-29T08:03:36;101768.44;;;1.16;58.74
26657;BME280;14279;50.010;8.260;2023-01-29T08:06:03;101773.97;;;1.42;58.52
26657;BME280;14279;50.010;8.260;2023-01-29T08:08:28;101780.91;;;1.49;59.38
26657;BME280;14279;50.010;8.260;2023-01-29T08:10:53;101771.28;;;1.34;59.30
26657;BME280;14279;50.010;8.260;2023-01-29T08:13:19;101777.09;;;1.24;59.60
26657;BME280;14279;50.010;8.260;2023-01-29T08:15:44;101775.50;;;0.77;60.08
26657;BME280;14279;50.010;8.260;2023-01-29T08:18:10;101780.81;;;0.88;59.85
26657;BME280;14279;50.010;8.260;2023-01-29T08:20:35;101797.69;;;1.27;59.20
26657;BME280;14279;50.010;8.260;2023-01-29T08:23:03;101804.03;;;1.51;58.15
26657;BME280;14279;50.010;8.260;2023-01-29T08:25:29;101811.88;;;1.62;58.01
26657;BME280;14279;50.010;8.260;2023-01-29T08:27:57;101807.22;;;1.34;58.79
26657;BME280;14279;50.010;8.260;2023-01-29T08:30:29;101799.84;;;1.01;59.13
26657;BME280;14279;50.010;8.260;2023-01-29T08:32:55;101794.81;;;1.07;59.45
26657;BME280;14279;50.010;8.260;2023-01-29T08:35:20;101793.53;;;1.37;58.67
26657;BME280;14279;50.010;8.260;2023-01-29T08:37:53;101790.19;;;1.41;59.96
26657;BME280;14279;50.010;8.260;2023-01-29T08:40:19;101778.88;;;1.28;58.67
26657;BME280;14279;50.010;8.260;2023-01-29T08:42:44;101784.72;;;1.76;58.20
26657;BME280;14279;50.010;8.260;2023-01-29T08:45:10;101792.59;;;1.92;56.82
26657;BME280;14279;50.010;8.260;2023-01-29T08:47:35;101791.75;;;1.94;56.42
26657;BME280;14279;50.010;8.260;2023-01-29T08:50:00;101796.22;;;1.43;57.37
26657;BME280;14279;50.010;8.260;2023-01-29T08:52:25;101813.06;;;1.26;58.07
26657;BME280;14279;50.010;8.260;2023-01-29T08:54:51;101811.00;;;1.03;58.93
26657;BME280;14279;50.010;8.260;2023-01-29T08:57:16;101813.63;;;1.08;58.66
26657;BME280;14279;50.010;8.260;2023-01-29T08:59:41;101802.28;;;1.50;58.20
26657;BME280;14279;50.010;8.260;2023-01-29T09:02:08;101799.31;;;1.82;56.92
26657;BME280;14279;50.010;8.260;2023-01-29T09:04:34;101806.38;;;1.97;57.35
26657;BME280;14279;50.010;8.260;2023-01-29T09:07:00;101805.22;;;1.75;56.88
26657;BME280;14279;50.010;8.260;2023-01-29T09:09:25;101806.72;;;1.60;57.24
26657;BME280;14279;50.010;8.260;2023-01-29T09:11:50;101811.75;;;1.53;57.79
26657;BME280;14279;50.010;8.260;2023-01-29T09:14:15;101814.13;;;1.40;57.80
26657;BME280;14279;50.010;8.260;2023-01-29T09:16:41;101813.03;;;1.84;57.78
26657;BME280;14279;50.010;8.260;2023-01-29T09:19:06;101813.00;;;1.81;57.77
26657;BME280;14279;50.010;8.260;2023-01-29T09:21:32;101815.91;;;1.43;59.09
26657;BME280;14279;50.010;8.260;2023-01-29T09:23:57;101821.16;;;1.52;57.91
26657;BME280;14279;50.010;8.260;2023-01-29T09:26:22;101834.94;;;1.59;58.07
26657;BME280;14279;50.010;8.260;2023-01-29T09:28:47;101835.31;;;1.28;58.49
26657;BME280;14279;50.010;8.260;2023-01-29T09:31:13;101834.25;;;1.71;57.85
26657;BME280;14279;50.010;8.260;2023-01-29T09:33:38;101841.94;;;1.69;57.26
26657;BME280;14279;50.010;8.260;2023-01-29T09:36:04;101840.06;;;1.57;56.96
26657;BME280;14279;50.010;8.260;2023-01-29T09:38:29;101830.63;;;1.02;57.99
26657;BME280;14279;50.010;8.260;2023-01-29T09:43:54;101844.19;;;1.47;57.77
26657;BME280;14279;50.010;8.260;2023-01-29T09:48:56;101831.56;;;1.63;57.30
26657;BME280;14279;50.010;8.260;2023-01-29T09:51:28;101847.53;;;1.43;57.95
26657;BME280;14279;50.010;8.260;2023-01-29T09:54:25;101855.06;;;1.32;58.42
26657;BME280;14279;50.010;8.260;2023-01-29T09:56:54;101845.97;;;1.52;57.95
26657;BME280;14279;50.010;8.260;2023-01-29T09:59:22;101843.56;;;1.62;57.53
26657;BME280;14279;50.010;8.260;2023-01-29T10:02:04;101843.41;;;1.52;57.46
26657;BME280;14279;50.010;8.260;2023-01-29T10:07:25;101828.16;;;1.62;57.24
26657;BME280;14279;50.010;8.260;2023-01-29T10:18:53;101837.16;;;1.95;56.14
26657;BME280;14279;50.010;8.260;2023-01-29T10:21:46;101829.00;;;1.63;56.91
26657;BME280;14279;50.010;8.260;2023-01-29T10:24:31;101817.44;;;1.93;56.53
26657;BME280;14279;50.010;8.260;2023-01-29T10:26:59;101806.31;;;1.92;56.31
26657;BME280;14279;50.010;8.260;2023-01-29T10:29:26;101796.84;;;1.88;56.26
26657;BME280;14279;50.010;8.260;2023-01-29T10:31:56;101786.22;;;1.62;57.31
26657;BME280;14279;50.010;8.260;2023-01-29T10:34:30;101773.66;;;1.84;56.90
26657;BME280;14279;50.010;8.260;2023-01-29T10:36:58;101775.63;;;1.40;57.84
26657;BME280;14279;50.010;8.260;2023-01-29T10:39:25;101770.38;;;1.92;56.80
26657;BME280;14279;50.010;8.260;2023-01-29T10:42:16;101766.06;;;1.93;56.80
26657;BME280;14279;50.010;8.260;2023-01-29T10:50:15;101751.78;;;1.47;58.73
26657;BME280;14279;50.010;8.260;2023-01-29T10:52:58;101740.25;;;1.80;57.27
26657;BME280;14279;50.010;8.260;2023-01-29T10:58:18;101736.25;;;2.06;56.50
26657;BME280;14279;50.010;8.260;2023-01-29T11:00:46;101731.75;;;1.86;57.35
26657;BME280;14279;50.010;8.260;2023-01-29T11:03:15;101727.47;;;1.87;57.73
26657;BME280;14279;50.010;8.260;2023-01-29T11:05:50;101724.38;;;2.16;56.63
26657;BME280;14279;50.010;8.260;2023-01-29T11:08:25;101714.13;;;2.19;55.78
26657;BME280;14279;50.010;8.260;2023-01-29T11:13:17;101709.31;;;2.50;56.16
26657;BME280;14279;50.010;8.260;2023-01-29T11:15:44;101709.41;;;2.61;55.58
26657;BME280;14279;50.010;8.260;2023-01-29T11:18:11;101704.03;;;2.36;55.77
26657;BME280;14279;50.010;8.260;2023-01-29T11:20:41;101697.38;;;2.61;55.55
26657;BME280;14279;50.010;8.260;2023-01-29T11:23:31;101691.81;;;2.15;55.71
26657;BME280;14279;50.010;8.260;2023-01-29T11:25:58;101700.63;;;1.60;57.97
26657;BME280;14279;50.010;8.260;2023-01-29T11:28:38;101700.94;;;1.88;57.05
26657;BME280;14279;50.010;8.260;2023-01-29T11:31:17;101703.00;;;2.20;56.89
26657;BME280;14279;50.010;8.260;2023-01-29T11:33:44;101702.47;;;2.52;55.29
26657;BME280;14279;50.010;8.260;2023-01-29T11:36:31;101697.16;;;2.36;55.83
26657;BME280;14279;50.010;8.260;2023-01-29T11:42:21;101688.44;;;1.45;57.97
26657;BME280;14279;50.010;8.260;2023-01-29T11:44:47;101680.25;;;1.74;57.69
26657;BME280;14279;50.010;8.260;2023-01-29T11:50:16;101679.53;;;1.86;57.82
26657;BME280;14279;50.010;8.260;2023-01-29T11:53:05;101678.03;;;2.06;56.98
26657;BME280;14279;50.010;8.260;2023-01-29T11:55:44;101672.56;;;1.75;57.39
26657;BME280;14279;50.010;8.260;2023-01-29T11:58:15;101663.66;;;1.47;58.29
26657;BME280;14279;50.010;8.260;2023-01-29T12:00:45;101650.47;;;1.88;57.57
26657;BME280;14279;50.010;8.260;2023-01-29T12:03:35;101643.78;;;2.04;57.62
26657;BME280;14279;50.010;8.260;2023-01-29T12:06:05;101643.81;;;2.09;56.60
26657;BME280;14279;50.010;8.260;2023-01-29T12:08:37;101637.84;;;2.12;56.98
26657;BME280;14279;50.010;8.260;2023-01-29T12:11:24;101628.56;;;2.26;57.55
26657;BME280;14279;50.010;8.260;2023-01-29T12:13:56;101621.00;;;2.46;56.87
26657;BME280;14279;50.010;8.260;2023-01-29T12:16:57;101618.31;;;2.31;56.27
26657;BME280;14279;50.010;8.260;2023-01-29T12:19:30;101637.56;;;1.80;58.67
26657;BME280;14279;50.010;8.260;2023-01-29T12:22:04;101621.75;;;2.30;57.32
26657;BME280;14279;50.010;8.260;2023-01-29T12:24:53;101618.09;;;2.06;57.17
26657;BME280;14279;50.010;8.260;2023-01-29T12:27:29;101612.09;;;2.02;57.52
26657;BME280;14279;50.010;8.260;2023-01-29T12:31:03;101614.59;;;1.96;57.68
26657;BME280;14279;50.010;8.260;2023-01-29T12:33:31;101613.09;;;2.20;57.32
26657;BME280;14279;50.010;8.260;2023-01-29T12:36:08;101609.06;;;2.50;56.96
26657;BME280;14279;50.010;8.260;2023-01-29T12:38:37;101600.41;;;2.42;56.39
26657;BME280;14279;50.010;8.260;2023-01-29T12:41:24;101594.97;;;2.07;58.24
26657;BME280;14279;50.010;8.260;2023-01-29T12:44:19;101575.41;;;2.20;57.23
26657;BME280;14279;50.010;8.260;2023-01-29T12:46:49;101580.50;;;2.14;57.71
26657;BME280;14279;50.010;8.260;2023-01-29T12:49:32;101588.97;;;2.05;57.20
26657;BME280;14279;50.010;8.260;2023-01-29T12:52:08;101568.38;;;1.99;57.93
26657;BME280;14279;50.010;8.260;2023-01-29T12:54:41;101563.16;;;1.88;58.72
26657;BME280;14279;50.010;8.260;2023-01-29T12:57:19;101566.25;;;1.58;58.97
26657;BME280;14279;50.010;8.260;2023-01-29T13:00:08;101566.53;;;1.86;58.52
26657;BME280;14279;50.010;8.260;2023-01-29T13:02:54;101564.09;;;1.98;59.20
26657;BME280;14279;50.010;8.260;2023-01-29T13:05:29;101561.59;;;2.06;58.87
26657;BME280;14279;50.010;8.260;2023-01-29T13:08:06;101558.28;;;2.22;57.61
26657;BME280;14279;50.010;8.260;2023-01-29T13:10:37;101553.88;;;2.07;57.84
26657;BME280;14279;50.010;8.260;2023-01-29T13:13:15;101556.59;;;2.24;57.55
26657;BME280;14279;50.010;8.260;2023-01-29T13:15:43;101552.13;;;2.00;58.95
26657;BME280;14279;50.010;8.260;2023-01-29T13:21:23;101535.06;;;2.07;58.57
26657;BME280;14279;50.010;8.260;2023-01-29T13:23:55;101523.97;;;2.11;58.04
26657;BME280;14279;50.010;8.260;2023-01-29T13:26:21;101520.66;;;2.26;58.17
26657;BME280;14279;50.010;8.260;2023-01-29T13:28:48;101527.44;;;2.18;58.43
26657;BME280;14279;50.010;8.260;2023-01-29T13:31:30;101525.81;;;2.31;57.50
26657;BME280;14279;50.010;8.260;2023-01-29T13:36:29;101528.13;;;1.98;58.91
26657;BME280;14279;50.010;8.260;2023-01-29T13:38:59;101523.91;;;2.05;58.55
26657;BME280;14279;50.010;8.260;2023-01-29T13:41:38;101517.72;;;1.79;59.77
26657;BME280;14279;50.010;8.260;2023-01-29T13:44:17;101515.50;;;2.26;58.10
26657;BME280;14279;50.010;8.260;2023-01-29T13:50:05;101511.25;;;2.30;58.71
26657;BME280;14279;50.010;8.260;2023-01-29T13:52:56;101505.28;;;2.35;58.77
26657;BME280;14279;50.010;8.260;2023-01-29T13:55:26;101497.69;;;2.60;58.00
26657;BME280;14279;50.010;8.260;2023-01-29T13:57:59;101494.44;;;2.97;57.16
26657;BME280;14279;50.010;8.260;2023-01-29T14:08:04;101487.66;;;3.11;56.82
26657;BME280;14279;50.010;8.260;2023-01-29T14:10:32;101470.44;;;3.06;57.26
26657;BME280;14279;50.010;8.260;2023-01-29T14:15:36;101479.03;;;3.05;56.96
26657;BME280;14279;50.010;8.260;2023-01-29T14:23:50;101481.59;;;3.01;57.47
26657;BME280;14279;50.010;8.260;2023-01-29T14:39:46;101477.34;;;3.21;56.78
26657;BME280;14279;50.010;8.260;2023-01-29T14:42:38;101469.69;;;3.45;56.70
26657;BME280;14279;50.010;8.260;2023-01-29T14:55:54;101451.56;;;2.94;58.26
26657;BME280;14279;50.010;8.260;2023-01-29T14:58:51;101450.75;;;3.09;58.09
26657;BME280;14279;50.010;8.260;2023-01-29T15:04:04;101449.81;;;2.87;58.94
26657;BME280;14279;50.010;8.260;2023-01-29T15:06:38;101442.19;;;3.15;58.05
26657;BME280;14279;50.010;8.260;2023-01-29T15:09:16;101441.28;;;2.94;59.29
26657;BME280;14279;50.010;8.260;2023-01-29T15:12:04;101437.06;;;3.24;57.87
26657;BME280;14279;50.010;8.260;2023-01-29T15:14:35;101434.47;;;3.07;58.95
26657;BME280;14279;50.010;8.260;2023-01-29T15:19:37;101432.75;;;3.12;58.02
26657;BME280;14279;50.010;8.260;2023-01-29T15:22:10;101437.84;;;2.95;58.41
26657;BME280;14279;50.010;8.260;2023-01-29T15:24:37;101430.13;;;2.88;59.17
26657;BME280;14279;50.010;8.260;2023-01-29T15:27:04;101429.16;;;2.67;58.92
26657;BME280;14279;50.010;8.260;2023-01-29T15:29:30;101418.94;;;2.84;59.05
26657;BME280;14279;50.010;8.260;2023-01-29T15:31:56;101419.84;;;2.88;59.16
26657;BME280;14279;50.010;8.260;2023-01-29T15:34:22;101410.47;;;3.11;58.74
26657;BME280;14279;50.010;8.260;2023-01-29T15:36:48;101418.09;;;2.90;59.22